createdAt,value
2019-03-23T00:00:34.983Z,335.20
2019-03-23T00:01:35.347Z,295.50
2019-03-23T00:02:35.698Z,287.80
2019-03-23T00:03:35.944Z,295.80
2019-03-23T00:04:36.292Z,295.60
2019-03-23T00:05:36.585Z,305.50
2019-03-23T00:06:36.937Z,318.00
2019-03-23T00:07:37.240Z,293.90
2019-03-23T00:08:37.573Z,277.60
2019-03-23T00:09:37.914Z,313.20
2019-03-23T00:10:38.239Z,297.30
2019-03-23T00:11:38.591Z,315.80
2019-03-23T00:12:38.873Z,304.30
2019-03-23T00:13:39.198Z,340.00
2019-03-23T00:14:39.536Z,349.50
2019-03-23T00:15:39.843Z,318.20
2019-03-23T00:16:40.155Z,353.30
2019-03-23T00:17:40.501Z,315.00
2019-03-23T00:18:41.399Z,306.90
2019-03-23T00:19:41.293Z,313.00
2019-03-23T00:20:41.479Z,316.10
2019-03-23T00:21:41.796Z,304.60
2019-03-23T00:22:42.135Z,312.20
2019-03-23T00:23:42.440Z,299.30
2019-03-23T00:24:42.777Z,308.10
2019-03-23T00:25:43.087Z,292.80
2019-03-23T00:26:43.419Z,326.70
2019-03-23T00:27:43.802Z,309.20
2019-03-23T00:28:44.038Z,326.50
2019-03-23T00:29:44.380Z,309.40
2019-03-23T00:30:44.684Z,325.20
2019-03-23T00:31:45.025Z,295.70
2019-03-23T00:32:45.334Z,364.90
2019-03-23T00:33:45.675Z,310.90
2019-03-23T00:34:46.006Z,335.50
2019-03-23T00:35:46.362Z,332.30
2019-03-23T00:36:46.612Z,308.20
2019-03-23T00:37:46.948Z,299.40
2019-03-23T00:38:47.268Z,297.50
2019-03-23T00:39:47.608Z,328.70
2019-03-23T00:40:48.594Z,312.50
2019-03-23T00:41:48.225Z,314.90
2019-03-23T00:42:48.564Z,331.90
2019-03-23T00:43:48.959Z,370.80
2019-03-23T00:44:49.214Z,335.40
2019-03-23T00:45:49.527Z,321.70
2019-03-23T00:46:49.842Z,317.80
2019-03-23T00:47:50.183Z,339.10
2019-03-23T00:48:50.498Z,288.20
2019-03-23T00:49:50.835Z,307.50
2019-03-23T00:50:51.115Z,301.10
2019-03-23T00:51:51.480Z,315.50
2019-03-23T00:52:51.910Z,291.30
2019-03-23T00:53:52.097Z,314.70
2019-03-23T00:54:52.419Z,319.40
2019-03-23T00:55:52.743Z,325.60
2019-03-23T00:56:53.093Z,326.60
2019-03-23T00:57:53.439Z,288.10
2019-03-23T00:58:53.722Z,298.00
2019-03-23T00:59:54.065Z,326.10
2019-03-23T01:00:54.462Z,328.50
2019-03-23T01:01:54.689Z,313.80
2019-03-23T01:02:55.024Z,302.70
2019-03-23T01:03:55.563Z,324.80
2019-03-23T01:04:55.670Z,292.90
2019-03-23T01:05:55.961Z,300.00
2019-03-23T01:06:56.292Z,318.70
2019-03-23T01:07:56.637Z,342.20
2019-03-23T01:08:57.029Z,295.60
2019-03-23T01:09:57.266Z,328.50
2019-03-23T01:10:57.577Z,316.30
2019-03-23T01:11:57.893Z,368.80
2019-03-23T01:12:58.235Z,300.60
2019-03-23T01:13:58.548Z,304.40
2019-03-23T01:14:58.878Z,292.50
2019-03-23T01:15:59.198Z,327.70
2019-03-23T01:16:59.570Z,303.00
2019-03-23T01:17:59.824Z,309.60
2019-03-23T01:19:00.154Z,336.80
2019-03-23T01:20:00.474Z,342.00
2019-03-23T01:21:00.824Z,310.40
2019-03-23T01:22:01.148Z,347.90
2019-03-23T01:23:01.485Z,343.00
2019-03-23T01:24:01.772Z,379.20
2019-03-23T01:25:02.138Z,388.70
2019-03-23T01:26:02.631Z,365.60
2019-03-23T01:27:02.770Z,344.00
2019-03-23T01:28:03.115Z,338.60
2019-03-23T01:29:03.396Z,381.90
2019-03-23T01:30:03.739Z,441.40
2019-03-23T01:31:04.079Z,480.70
2019-03-23T01:32:04.400Z,353.90
2019-03-23T01:33:04.738Z,350.00
2019-03-23T01:34:05.131Z,339.90
2019-03-23T01:35:05.363Z,430.40
2019-03-23T01:36:05.699Z,383.50
2019-03-23T01:37:06.014Z,460.00
2019-03-23T01:38:06.340Z,445.80
2019-03-23T01:39:06.645Z,313.40
2019-03-23T01:40:06.951Z,301.90
2019-03-23T01:41:07.301Z,293.40
2019-03-23T01:42:07.745Z,319.40
2019-03-23T01:43:07.942Z,323.80
2019-03-23T01:44:08.264Z,359.70
2019-03-23T01:45:08.556Z,386.20
2019-03-23T01:46:08.911Z,359.10
2019-03-23T01:47:09.226Z,407.60
2019-03-23T01:48:09.563Z,426.00
2019-03-23T01:49:09.853Z,496.20
2019-03-23T01:50:10.202Z,820.30
2019-03-23T01:51:10.486Z,494.60
2019-03-23T01:52:10.824Z,395.30
2019-03-23T01:53:11.162Z,377.60
2019-03-23T01:54:11.474Z,436.50
2019-03-23T01:55:11.780Z,602.50
2019-03-23T01:56:12.123Z,552.30
2019-03-23T01:57:12.416Z,323.30
2019-03-23T01:58:12.843Z,316.90
2019-03-23T01:59:13.065Z,407.40
2019-03-23T02:00:13.396Z,399.40
2019-03-23T02:01:13.735Z,437.10
2019-03-23T02:02:14.060Z,404.30
2019-03-23T02:03:14.366Z,424.20
2019-03-23T02:04:14.684Z,588.50
2019-03-23T02:05:15.073Z,366.10
2019-03-23T02:06:15.367Z,398.50
2019-03-23T02:07:15.774Z,530.30
2019-03-23T02:08:15.975Z,471.40
2019-03-23T02:09:16.297Z,372.00
2019-03-23T02:10:16.616Z,371.00
2019-03-23T02:11:16.958Z,457.80
2019-03-23T02:12:17.283Z,433.10
2019-03-23T02:13:17.600Z,454.90
2019-03-23T02:14:17.890Z,454.60
2019-03-23T02:15:18.318Z,397.30
2019-03-23T02:16:18.565Z,359.90
2019-03-23T02:17:18.864Z,371.40
2019-03-23T02:18:19.177Z,421.70
2019-03-23T02:19:19.509Z,681.40
2019-03-23T02:20:19.850Z,709.30
2019-03-23T02:21:20.180Z,391.00
2019-03-23T02:22:20.491Z,421.30
2019-03-23T02:23:20.895Z,374.60
2019-03-23T02:24:21.111Z,301.20
2019-03-23T02:25:21.468Z,377.80
2019-03-23T02:26:21.804Z,309.80
2019-03-23T02:27:22.119Z,343.10
2019-03-23T02:28:22.433Z,431.60
2019-03-23T02:29:22.772Z,496.30
2019-03-23T02:30:23.080Z,295.00
2019-03-23T02:31:23.490Z,370.50
2019-03-23T02:32:23.732Z,428.90
2019-03-23T02:33:24.068Z,356.10
2019-03-23T02:34:24.394Z,413.80
2019-03-23T02:35:24.679Z,340.50
2019-03-23T02:36:25.021Z,385.50
2019-03-23T02:37:28.104Z,378.00
2019-03-23T02:38:25.669Z,353.60
2019-03-23T02:39:26.042Z,605.20
2019-03-23T02:40:26.368Z,447.70
2019-03-23T02:41:26.631Z,406.20
2019-03-23T02:42:27.197Z,729.60
2019-03-23T02:43:27.535Z,475.50
2019-03-23T02:44:27.875Z,731.30
2019-03-23T02:45:30.213Z,360.00
2019-03-23T02:46:28.515Z,343.50
2019-03-23T02:47:28.831Z,623.80
2019-03-23T02:48:29.245Z,597.30
2019-03-23T02:49:29.475Z,523.00
2019-03-23T02:50:29.780Z,691.90
2019-03-23T02:51:30.121Z,449.40
2019-03-23T02:52:30.523Z,512.10
2019-03-23T02:53:30.749Z,555.90
2019-03-23T02:54:31.095Z,568.60
2019-03-23T02:55:31.402Z,555.00
2019-03-23T02:56:31.862Z,381.00
2019-03-23T02:57:32.052Z,647.40
2019-03-23T02:58:32.373Z,403.50
2019-03-23T02:59:32.716Z,463.30
2019-03-23T03:00:33.023Z,520.10
2019-03-23T03:01:33.367Z,680.90
2019-03-23T03:02:33.689Z,497.80
2019-03-23T03:03:33.970Z,563.50
2019-03-23T03:04:34.365Z,544.40
2019-03-23T03:05:35.420Z,468.50
2019-03-23T03:06:34.975Z,502.70
2019-03-23T03:07:42.120Z,831.40
2019-03-23T03:08:36.601Z,411.10
2019-03-23T03:09:35.935Z,506.20
2019-03-23T03:10:36.250Z,634.00
2019-03-23T03:11:36.612Z,499.60
2019-03-23T03:12:36.978Z,643.50
2019-03-23T03:13:37.215Z,657.90
2019-03-23T03:14:37.551Z,449.90
2019-03-23T03:15:37.849Z,492.90
2019-03-23T03:16:38.230Z,562.00
2019-03-23T03:17:38.508Z,434.60
2019-03-23T03:18:38.850Z,642.10
2019-03-23T03:19:39.179Z,651.70
2019-03-23T03:20:39.535Z,729.70
2019-03-23T03:21:39.830Z,391.50
2019-03-23T03:22:40.138Z,848.20
2019-03-23T03:23:40.455Z,594.80
2019-03-23T03:24:40.790Z,614.10
2019-03-23T03:25:41.090Z,566.00
2019-03-23T03:26:41.399Z,641.40
2019-03-23T03:27:41.756Z,663.20
2019-03-23T03:28:42.121Z,883.90
2019-03-23T03:29:42.575Z,579.30
2019-03-23T03:30:42.720Z,591.10
2019-03-23T03:31:43.067Z,851.60
2019-03-23T03:32:43.452Z,740.20
2019-03-23T03:33:43.731Z,608.10
2019-03-23T03:34:44.064Z,752.20
2019-03-23T03:35:44.360Z,626.20
2019-03-23T03:36:44.698Z,658.10
2019-03-23T03:37:55.837Z,942.00
2019-03-23T03:38:46.354Z,474.20
2019-03-23T03:39:45.661Z,545.80
2019-03-23T03:40:45.966Z,739.20
2019-03-23T03:41:46.292Z,627.00
2019-03-23T03:42:46.621Z,477.70
2019-03-23T03:43:46.971Z,541.90
2019-03-23T03:44:47.288Z,457.20
2019-03-23T03:45:47.641Z,619.40
2019-03-23T03:46:47.902Z,594.10
2019-03-23T03:47:48.250Z,512.70
2019-03-23T03:48:48.574Z,651.20
2019-03-23T03:49:48.898Z,558.40
2019-03-23T03:50:49.214Z,760.70
2019-03-23T03:51:49.529Z,426.20
2019-03-23T03:52:49.868Z,451.60
2019-03-23T03:53:50.291Z,479.80
2019-03-23T03:54:50.502Z,545.50
2019-03-23T03:55:50.842Z,490.80
2019-03-23T03:56:51.149Z,386.00
2019-03-23T03:57:51.502Z,474.60
2019-03-23T03:58:51.822Z,500.80
2019-03-23T03:59:52.135Z,454.70
2019-03-23T04:00:52.425Z,437.10
2019-03-23T04:01:52.773Z,557.00
2019-03-23T04:02:53.234Z,809.00
2019-03-23T04:03:53.443Z,331.10
2019-03-23T04:04:53.764Z,441.60
2019-03-23T04:05:54.044Z,388.00
2019-03-23T04:06:54.383Z,375.50
2019-03-23T04:07:54.739Z,387.20
2019-03-23T04:08:55.087Z,764.50
2019-03-23T04:09:55.388Z,724.20
2019-03-23T04:10:55.766Z,392.20
2019-03-23T04:11:55.993Z,547.50
2019-03-23T04:12:56.342Z,622.60
2019-03-23T04:13:56.670Z,513.50
2019-03-23T04:14:57.007Z,361.40
2019-03-23T04:15:57.276Z,405.60
2019-03-23T04:16:57.603Z,568.70
2019-03-23T04:17:57.977Z,517.60
2019-03-23T04:18:58.340Z,360.30
2019-03-23T04:19:58.810Z,685.40
2019-03-23T04:20:58.893Z,434.80
2019-03-23T04:21:59.202Z,501.90
2019-03-23T04:22:59.553Z,591.00
2019-03-23T04:23:59.923Z,387.30
2019-03-23T04:25:00.567Z,390.00
2019-03-23T04:26:00.508Z,504.20
2019-03-23T04:27:00.914Z,435.10
2019-03-23T04:28:01.140Z,663.40
2019-03-23T04:29:01.466Z,371.10
2019-03-23T04:30:01.799Z,328.20
2019-03-23T04:31:02.122Z,421.60
2019-03-23T04:32:02.453Z,400.60
2019-03-23T04:33:02.796Z,363.80
2019-03-23T04:34:03.085Z,457.70
2019-03-23T04:35:03.452Z,505.40
2019-03-23T04:36:03.847Z,364.00
2019-03-23T04:37:04.085Z,477.00
2019-03-23T04:38:04.422Z,398.50
2019-03-23T04:39:04.724Z,414.50
2019-03-23T04:40:05.041Z,382.40
2019-03-23T04:41:05.406Z,673.00
2019-03-23T04:42:05.697Z,608.80
2019-03-23T04:43:06.039Z,374.40
2019-03-23T04:44:06.642Z,612.10
2019-03-23T04:45:06.661Z,594.70
2019-03-23T04:46:07.002Z,391.70
2019-03-23T04:47:07.323Z,571.80
2019-03-23T04:48:07.662Z,624.10
2019-03-23T04:49:07.959Z,639.40
2019-03-23T04:50:08.442Z,347.90
2019-03-23T04:51:08.607Z,419.70
2019-03-23T04:52:13.802Z,424.10
2019-03-23T04:53:09.273Z,613.20
2019-03-23T04:54:09.585Z,414.30
2019-03-23T04:55:09.936Z,630.40
2019-03-23T04:56:10.242Z,409.30
2019-03-23T04:57:10.572Z,462.30
2019-03-23T04:58:10.905Z,579.20
2019-03-23T04:59:11.211Z,653.90
2019-03-23T05:00:11.606Z,482.50
2019-03-23T05:01:11.836Z,441.90
2019-03-23T05:02:12.182Z,521.90
2019-03-23T05:03:12.535Z,475.70
2019-03-23T05:04:12.840Z,451.50
2019-03-23T05:05:13.191Z,436.40
2019-03-23T05:06:13.500Z,335.30
2019-03-23T05:07:13.805Z,367.10
2019-03-23T05:08:14.181Z,366.10
2019-03-23T05:09:14.430Z,658.20
2019-03-23T05:10:14.773Z,384.80
2019-03-23T05:11:15.107Z,350.70
2019-03-23T05:12:15.402Z,494.80
2019-03-23T05:13:15.749Z,354.40
2019-03-23T05:14:16.031Z,439.50
2019-03-23T05:15:16.370Z,437.90
2019-03-23T05:16:16.744Z,383.60
2019-03-23T05:17:17.071Z,506.60
2019-03-23T05:18:17.352Z,449.50
2019-03-23T05:19:17.657Z,319.00
2019-03-23T05:20:17.992Z,315.20
2019-03-23T05:21:18.336Z,375.30
2019-03-23T05:22:18.635Z,443.30
2019-03-23T05:23:18.980Z,336.70
2019-03-23T05:24:19.294Z,347.40
2019-03-23T05:25:19.682Z,606.30
2019-03-23T05:26:19.942Z,629.70
2019-03-23T05:27:20.237Z,392.60
2019-03-23T05:28:20.577Z,353.80
2019-03-23T05:29:20.859Z,412.10
2019-03-23T05:30:21.182Z,269.80
2019-03-23T05:31:21.548Z,442.10
2019-03-23T05:32:21.858Z,326.80
2019-03-23T05:33:22.290Z,804.00
2019-03-23T05:34:22.463Z,317.40
2019-03-23T05:35:22.788Z,289.20
2019-03-23T05:36:23.150Z,573.50
2019-03-23T05:37:23.445Z,453.20
2019-03-23T05:38:23.786Z,311.60
2019-03-23T05:39:24.079Z,645.60
2019-03-23T05:40:24.411Z,382.10
2019-03-23T05:41:24.760Z,452.90
2019-03-23T05:42:25.034Z,667.00
2019-03-23T05:43:25.380Z,389.80
2019-03-23T05:44:25.683Z,308.50
2019-03-23T05:45:26.005Z,271.30
2019-03-23T05:46:26.358Z,296.20
2019-03-23T05:47:26.630Z,343.00
2019-03-23T05:48:26.986Z,306.30
2019-03-23T05:49:27.343Z,561.50
2019-03-23T05:50:27.600Z,257.10
2019-03-23T05:51:27.951Z,265.20
2019-03-23T05:52:28.238Z,426.30
2019-03-23T05:53:28.568Z,393.40
2019-03-23T05:54:28.912Z,318.10
2019-03-23T05:55:29.234Z,341.20
2019-03-23T05:56:29.779Z,614.30
2019-03-23T05:57:30.131Z,283.60
2019-03-23T05:58:30.291Z,317.50
2019-03-23T05:59:30.542Z,283.90
2019-03-23T06:00:30.863Z,278.00
2019-03-23T06:01:31.213Z,248.10
2019-03-23T06:02:31.509Z,286.10
2019-03-23T06:03:31.815Z,498.00
2019-03-23T06:04:32.151Z,438.10
2019-03-23T06:05:32.490Z,252.80
2019-03-23T06:06:32.954Z,341.20
2019-03-23T06:07:33.130Z,695.80
2019-03-23T06:08:33.443Z,217.40
2019-03-23T06:09:33.792Z,306.10
2019-03-23T06:10:34.102Z,320.10
2019-03-23T06:11:34.447Z,691.90
2019-03-23T06:12:34.743Z,395.50
2019-03-23T06:13:35.064Z,225.00
2019-03-23T06:14:35.433Z,415.80
2019-03-23T06:15:35.688Z,253.50
2019-03-23T06:16:36.045Z,363.30
2019-03-23T06:17:36.341Z,255.80
2019-03-23T06:18:36.661Z,502.10
2019-03-23T06:19:37.006Z,385.40
2019-03-23T06:20:37.290Z,246.90
2019-03-23T06:21:37.664Z,438.50
2019-03-23T06:22:37.999Z,341.60
2019-03-23T06:23:38.249Z,244.20
2019-03-23T06:24:38.593Z,225.00
2019-03-23T06:25:38.879Z,188.00
2019-03-23T06:26:39.250Z,193.70
2019-03-23T06:27:39.536Z,213.80
2019-03-23T06:28:39.864Z,213.50
2019-03-23T06:29:40.211Z,289.20
2019-03-23T06:30:40.533Z,272.80
2019-03-23T06:31:40.886Z,203.10
2019-03-23T06:32:41.159Z,205.40
2019-03-23T06:33:41.477Z,171.60
2019-03-23T06:34:41.817Z,215.90
2019-03-23T06:35:42.120Z,167.50
2019-03-23T06:36:42.480Z,135.30
2019-03-23T06:37:42.777Z,190.70
2019-03-23T06:38:43.084Z,136.40
2019-03-23T06:39:43.518Z,154.50
2019-03-23T06:40:43.718Z,137.50
2019-03-23T06:41:44.092Z,175.80
2019-03-23T06:42:44.353Z,281.40
2019-03-23T06:43:44.692Z,144.50
2019-03-23T06:44:45.022Z,154.00
2019-03-23T06:45:45.329Z,123.00
2019-03-23T06:46:45.700Z,126.80
2019-03-23T06:47:46.084Z,131.30
2019-03-23T06:48:46.298Z,152.00
2019-03-23T06:49:46.623Z,113.10
2019-03-23T06:50:46.937Z,195.10
2019-03-23T06:51:47.313Z,204.70
2019-03-23T06:52:47.566Z,176.30
2019-03-23T06:53:47.887Z,123.90
2019-03-23T06:54:48.243Z,121.80
2019-03-23T06:55:48.604Z,154.50
2019-03-23T06:56:48.894Z,168.60
2019-03-23T06:57:49.183Z,129.10
2019-03-23T06:58:49.484Z,126.90
2019-03-23T06:59:49.838Z,122.00
2019-03-23T07:00:50.161Z,114.20
2019-03-23T07:01:50.505Z,219.70
2019-03-23T07:02:50.805Z,110.10
2019-03-23T07:03:51.157Z,377.20
2019-03-23T07:04:51.427Z,155.40
2019-03-23T07:05:51.741Z,113.30
2019-03-23T07:06:52.285Z,128.40
2019-03-23T07:07:52.431Z,120.00
2019-03-23T07:08:52.748Z,128.10
2019-03-23T07:09:53.078Z,104.30
2019-03-23T07:10:53.389Z,150.20
2019-03-23T07:11:53.722Z,114.20
2019-03-23T07:12:54.123Z,96.40
2019-03-23T07:13:54.352Z,94.10
2019-03-23T07:14:54.700Z,97.00
2019-03-23T07:15:54.984Z,101.40
2019-03-23T07:16:55.348Z,112.30
2019-03-23T07:17:55.677Z,103.40
2019-03-23T07:18:55.978Z,81.50
2019-03-23T07:19:56.322Z,91.80
2019-03-23T07:20:56.716Z,94.70
2019-03-23T07:21:57.249Z,93.40
2019-03-23T07:22:57.282Z,98.30
2019-03-23T07:23:57.581Z,95.10
2019-03-23T07:24:57.920Z,93.80
2019-03-23T07:25:58.234Z,89.40
2019-03-23T07:26:58.583Z,88.20
2019-03-23T07:27:58.895Z,99.50
2019-03-23T07:28:59.302Z,92.50
2019-03-23T07:29:59.543Z,91.40
2019-03-23T07:30:59.852Z,89.60
2019-03-23T07:32:05.769Z,76.90
2019-03-23T07:33:01.501Z,83.10
2019-03-23T07:34:00.830Z,87.50
2019-03-23T07:35:01.170Z,84.90
2019-03-23T07:36:01.477Z,90.20
2019-03-23T07:37:02.118Z,86.00
2019-03-23T07:38:02.100Z,80.10
2019-03-23T07:39:02.416Z,84.60
2019-03-23T07:40:02.768Z,90.40
2019-03-23T07:41:03.075Z,81.40
2019-03-23T07:42:03.430Z,74.50
2019-03-23T07:43:03.728Z,84.40
2019-03-23T07:44:04.035Z,82.90
2019-03-23T07:45:04.435Z,88.60
2019-03-23T07:46:04.684Z,81.90
2019-03-23T07:47:05.025Z,81.40
2019-03-23T07:48:05.355Z,78.70
2019-03-23T07:49:05.654Z,79.50
2019-03-23T07:50:06.035Z,79.10
2019-03-23T07:51:06.299Z,83.70
2019-03-23T07:52:06.659Z,79.90
2019-03-23T07:53:06.990Z,85.50
2019-03-23T07:54:07.376Z,76.50
2019-03-23T07:55:07.614Z,85.10
2019-03-23T07:56:07.924Z,82.60
2019-03-23T07:57:08.284Z,79.20
2019-03-23T07:58:08.583Z,81.00
2019-03-23T07:59:08.886Z,77.30
2019-03-23T08:00:09.229Z,77.40
2019-03-23T08:01:09.514Z,75.50
2019-03-23T08:02:09.978Z,75.70
2019-03-23T08:03:10.209Z,78.50
2019-03-23T08:04:10.831Z,72.50
2019-03-23T08:05:11.817Z,74.40
2019-03-23T08:06:12.024Z,79.70
2019-03-23T08:07:11.495Z,76.30
2019-03-23T08:08:11.825Z,76.80
2019-03-23T08:09:20.135Z,78.10
2019-03-23T08:10:13.533Z,77.20
2019-03-23T08:11:12.782Z,77.00
2019-03-23T08:12:13.113Z,73.60
2019-03-23T08:13:13.444Z,73.30
2019-03-23T08:14:13.742Z,73.50
2019-03-23T08:15:14.065Z,74.90
2019-03-23T08:16:14.404Z,75.50
2019-03-23T08:17:14.758Z,74.00
2019-03-23T08:18:15.090Z,69.40
2019-03-23T08:19:15.355Z,78.50
2019-03-23T08:20:15.674Z,72.10
2019-03-23T08:21:16.014Z,74.70
2019-03-23T08:22:16.340Z,65.60
2019-03-23T08:23:16.664Z,73.60
2019-03-23T08:24:16.959Z,74.50
2019-03-23T08:25:17.296Z,70.40
2019-03-23T08:26:17.881Z,67.00
2019-03-23T08:27:17.974Z,72.10
2019-03-23T08:28:18.265Z,66.40
2019-03-23T08:29:18.566Z,66.10
2019-03-23T08:30:18.903Z,74.90
2019-03-23T08:31:19.254Z,71.70
2019-03-23T08:32:19.549Z,69.80
2019-03-23T08:33:19.893Z,67.60
2019-03-23T08:34:20.203Z,73.70
2019-03-23T08:35:20.623Z,70.70
2019-03-23T08:36:20.853Z,67.50
2019-03-23T08:37:21.160Z,66.20
2019-03-23T08:38:21.506Z,69.40
2019-03-23T08:39:21.829Z,69.70
2019-03-23T08:40:22.114Z,72.20
2019-03-23T08:41:22.466Z,66.80
2019-03-23T08:42:22.777Z,69.70
2019-03-23T08:43:23.259Z,69.40
2019-03-23T08:44:23.389Z,72.20
2019-03-23T08:45:23.735Z,67.20
2019-03-23T08:46:24.091Z,70.50
2019-03-23T08:47:24.394Z,65.10
2019-03-23T08:48:24.741Z,70.30
2019-03-23T08:49:25.044Z,70.80
2019-03-23T08:50:25.361Z,68.90
2019-03-23T08:51:25.725Z,65.30
2019-03-23T08:52:25.981Z,68.80
2019-03-23T08:53:26.343Z,66.30
2019-03-23T08:54:26.643Z,73.80
2019-03-23T08:55:26.961Z,64.00
2019-03-23T08:56:27.285Z,65.10
2019-03-23T08:57:27.591Z,66.20
2019-03-23T08:58:27.958Z,67.30
2019-03-23T08:59:28.293Z,66.60
2019-03-23T09:00:28.548Z,62.10
2019-03-23T09:01:28.888Z,63.80
2019-03-23T09:02:29.195Z,64.50
2019-03-23T09:03:29.571Z,60.50
2019-03-23T09:04:29.858Z,62.60
2019-03-23T09:05:30.180Z,63.30
2019-03-23T09:06:30.521Z,61.20
2019-03-23T09:07:30.854Z,62.20
2019-03-23T09:08:31.188Z,61.80
2019-03-23T09:09:31.467Z,60.90
2019-03-23T09:10:31.787Z,66.10
2019-03-23T09:11:32.130Z,59.20
2019-03-23T09:12:32.464Z,61.20
2019-03-23T09:13:40.176Z,63.10
2019-03-23T09:14:34.093Z,65.80
2019-03-23T09:15:33.438Z,59.70
2019-03-23T09:16:34.133Z,61.20
2019-03-23T09:17:34.102Z,60.00
2019-03-23T09:18:34.397Z,55.40
2019-03-23T09:19:34.724Z,58.10
2019-03-23T09:20:35.064Z,59.10
2019-03-23T09:21:35.404Z,55.30
2019-03-23T09:22:35.716Z,60.00
2019-03-23T09:23:36.089Z,58.90
2019-03-23T09:24:36.449Z,57.20
2019-03-23T09:25:36.673Z,56.20
2019-03-23T09:26:37.013Z,57.20
2019-03-23T09:27:37.318Z,58.00
2019-03-23T09:28:37.647Z,57.80
2019-03-23T09:29:37.972Z,52.10
2019-03-23T09:30:38.275Z,53.80
2019-03-23T09:31:38.625Z,56.90
2019-03-23T09:32:38.986Z,59.30
2019-03-23T09:33:39.235Z,56.40
2019-03-23T09:34:39.591Z,55.80
2019-03-23T09:35:39.871Z,56.30
2019-03-23T09:36:41.308Z,52.50
2019-03-23T09:37:40.547Z,55.80
2019-03-23T09:38:40.869Z,54.90
2019-03-23T09:39:41.205Z,56.30
2019-03-23T09:40:41.562Z,57.20
2019-03-23T09:41:41.826Z,53.60
2019-03-23T09:42:42.152Z,52.60
2019-03-23T09:43:42.480Z,51.80
2019-03-23T09:44:42.840Z,54.10
2019-03-23T09:45:43.125Z,57.20
2019-03-23T09:46:43.465Z,54.20
2019-03-23T09:47:43.736Z,52.50
2019-03-23T09:48:44.106Z,56.70
2019-03-23T09:49:44.565Z,52.90
2019-03-23T09:50:44.736Z,58.00
2019-03-23T09:51:45.072Z,50.10
2019-03-23T09:52:45.361Z,55.30
2019-03-23T09:53:45.703Z,52.40
2019-03-23T09:54:46.045Z,53.80
2019-03-23T09:55:46.344Z,51.50
2019-03-23T09:56:46.688Z,51.10
2019-03-23T09:57:47.091Z,50.30
2019-03-23T09:58:47.309Z,51.50
2019-03-23T09:59:47.938Z,51.80
2019-03-23T10:00:47.954Z,52.00
2019-03-23T10:01:48.292Z,51.00
2019-03-23T10:02:48.586Z,50.90
2019-03-23T10:03:48.915Z,51.20
2019-03-23T10:04:49.295Z,51.50
2019-03-23T10:05:49.639Z,51.50
2019-03-23T10:06:49.901Z,48.00
2019-03-23T10:07:50.202Z,48.50
2019-03-23T10:08:50.509Z,48.00
2019-03-23T10:09:50.889Z,47.20
2019-03-23T10:10:51.173Z,50.90
2019-03-23T10:11:51.510Z,49.40
2019-03-23T10:12:51.813Z,51.10
2019-03-23T10:13:52.173Z,52.50
2019-03-23T10:14:52.465Z,49.20
2019-03-23T10:15:52.770Z,50.50
2019-03-23T10:16:53.090Z,51.20
2019-03-23T10:17:53.410Z,51.50
2019-03-23T10:18:53.729Z,48.80
2019-03-23T10:19:54.106Z,54.70
2019-03-23T10:20:54.365Z,57.80
2019-03-23T10:21:54.734Z,54.90
2019-03-23T10:22:55.135Z,51.90
2019-03-23T10:23:55.400Z,51.80
2019-03-23T10:24:55.769Z,49.30
2019-03-23T10:25:56.031Z,50.00
2019-03-23T10:26:56.374Z,51.00
2019-03-23T10:27:56.718Z,53.10
2019-03-23T10:28:57.022Z,56.10
2019-03-23T10:29:57.402Z,52.00
2019-03-23T10:30:57.784Z,49.60
2019-03-23T10:31:57.992Z,50.60
2019-03-23T10:32:58.335Z,52.40
2019-03-23T10:33:58.633Z,49.80
2019-03-23T10:34:59.008Z,51.80
2019-03-23T10:35:59.279Z,52.50
2019-03-23T10:36:59.582Z,50.20
2019-03-23T10:37:59.933Z,48.20
2019-03-23T10:39:00.346Z,49.30
2019-03-23T10:40:00.613Z,48.50
2019-03-23T10:41:00.867Z,50.50
2019-03-23T10:42:01.196Z,51.70
2019-03-23T10:43:01.549Z,48.50
2019-03-23T10:44:01.859Z,45.60
2019-03-23T10:45:02.216Z,48.80
2019-03-23T10:46:02.509Z,47.70
2019-03-23T10:47:02.973Z,49.90
2019-03-23T10:48:03.151Z,49.70
2019-03-23T10:49:03.482Z,50.10
2019-03-23T10:50:03.811Z,45.40
2019-03-23T10:51:04.122Z,48.20
2019-03-23T10:52:04.445Z,50.30
2019-03-23T10:53:04.777Z,49.10
2019-03-23T10:54:05.068Z,50.00
2019-03-23T10:55:05.727Z,49.80
2019-03-23T10:56:05.752Z,45.10
2019-03-23T10:57:06.032Z,45.10
2019-03-23T10:58:06.373Z,44.90
2019-03-23T10:59:06.683Z,46.10
2019-03-23T11:00:24.570Z,46.50
2019-03-23T11:01:08.351Z,45.30
2019-03-23T11:02:07.655Z,47.60
2019-03-23T11:03:08.050Z,46.00
2019-03-23T11:04:08.439Z,45.70
2019-03-23T11:05:08.655Z,46.30
2019-03-23T11:06:08.980Z,49.00
2019-03-23T11:07:09.298Z,49.70
2019-03-23T11:08:09.626Z,47.50
2019-03-23T11:09:09.937Z,46.50
2019-03-23T11:10:10.277Z,49.10
2019-03-23T11:11:10.592Z,49.00
2019-03-23T11:12:11.035Z,46.90
2019-03-23T11:13:11.247Z,48.50
2019-03-23T11:14:11.549Z,48.40
2019-03-23T11:15:11.871Z,45.80
2019-03-23T11:16:12.181Z,49.30
2019-03-23T11:17:12.510Z,53.60
2019-03-23T11:18:12.851Z,45.30
2019-03-23T11:19:13.542Z,48.90
2019-03-23T11:20:13.556Z,47.60
2019-03-23T11:21:13.784Z,47.60
2019-03-23T11:22:14.119Z,47.70
2019-03-23T11:23:14.455Z,48.60
2019-03-23T11:24:14.761Z,49.80
2019-03-23T11:25:15.081Z,50.40
2019-03-23T11:26:15.436Z,50.10
2019-03-23T11:27:15.728Z,50.50
2019-03-23T11:28:16.166Z,50.90
2019-03-23T11:29:16.374Z,52.10
2019-03-23T11:30:16.699Z,53.20
2019-03-23T11:31:17.049Z,50.20
2019-03-23T11:32:17.361Z,53.10
2019-03-23T11:33:17.685Z,54.40
2019-03-23T11:34:18.288Z,54.10
2019-03-23T11:35:18.344Z,51.80
2019-03-23T11:36:19.015Z,51.50
2019-03-23T11:37:19.019Z,54.40
2019-03-23T11:38:19.294Z,50.40
2019-03-23T11:39:19.615Z,57.00
2019-03-23T11:40:19.949Z,51.10
2019-03-23T11:41:20.325Z,57.00
2019-03-23T11:42:20.595Z,56.00
2019-03-23T11:43:20.937Z,57.30
2019-03-23T11:44:21.244Z,54.10
2019-03-23T11:45:21.686Z,55.80
2019-03-23T11:46:21.957Z,57.80
2019-03-23T11:47:22.252Z,59.30
2019-03-23T11:48:22.600Z,60.00
2019-03-23T11:49:22.879Z,58.00
2019-03-23T11:50:23.223Z,59.90
2019-03-23T11:51:23.576Z,57.80
2019-03-23T11:52:23.881Z,56.90
2019-03-23T11:53:24.353Z,56.10
2019-03-23T11:54:24.510Z,58.60
2019-03-23T11:55:24.848Z,57.00
2019-03-23T11:56:25.219Z,56.40
2019-03-23T11:57:25.489Z,56.00
2019-03-23T11:58:25.833Z,54.90
2019-03-23T11:59:26.133Z,58.40
2019-03-23T12:00:26.442Z,55.40
2019-03-23T12:01:26.910Z,58.60
2019-03-23T12:02:27.096Z,57.30
2019-03-23T12:03:27.441Z,61.10
2019-03-23T12:04:27.740Z,57.50
2019-03-23T12:05:28.068Z,63.90
2019-03-23T12:06:28.397Z,62.10
2019-03-23T12:07:28.721Z,64.80
2019-03-23T12:08:29.055Z,65.70
2019-03-23T12:09:29.416Z,62.10
2019-03-23T12:10:29.660Z,62.20
2019-03-23T12:11:29.992Z,60.50
2019-03-23T12:12:30.509Z,64.70
2019-03-23T12:13:30.648Z,66.00
2019-03-23T12:14:30.954Z,65.70
2019-03-23T12:15:31.277Z,67.50
2019-03-23T12:16:31.621Z,65.90
2019-03-23T12:17:31.943Z,63.40
2019-03-23T12:18:32.324Z,62.80
2019-03-23T12:19:32.569Z,65.20
2019-03-23T12:20:32.891Z,62.70
2019-03-23T12:21:33.237Z,64.80
2019-03-23T12:22:33.544Z,64.40
2019-03-23T12:23:33.840Z,62.90
2019-03-23T12:24:34.179Z,60.40
2019-03-23T12:25:34.514Z,62.10
2019-03-23T12:26:34.983Z,59.10
2019-03-23T12:27:35.140Z,61.70
2019-03-23T12:28:35.471Z,61.90
2019-03-23T12:29:35.824Z,57.50
2019-03-23T12:30:36.148Z,57.80
2019-03-23T12:31:36.722Z,61.60
2019-03-23T12:32:36.842Z,61.60
2019-03-23T12:33:37.105Z,54.90
2019-03-23T12:34:37.601Z,55.60
2019-03-23T12:35:37.762Z,55.90
2019-03-23T12:36:38.099Z,55.50
2019-03-23T12:37:38.415Z,55.60
2019-03-23T12:38:38.728Z,57.40
2019-03-23T12:39:39.052Z,57.70
2019-03-23T12:40:39.379Z,54.70
2019-03-23T12:41:39.712Z,59.70
2019-03-23T12:42:40.086Z,57.60